Time;durP1;ratioP1;P1;durP2;ratioP2;P2;SDS_P1;SDS_P2;PMS_P1;PMS_P2;Temp;Humidity;BMP_temperature;BMP_pressure;BME280_temperature;BME280_humidity;BME280_pressure;Samples;Min_cycle;Max_cycle;Signal;HPM_P1;HPM_P2
2022/03/26 04:01:10;;;;;;;35.77;25.70;;;2.00;99.90;;;;;;5564457;23;20739;-69
2022/03/26 04:03:36;;;;;;;41.53;25.53;;;2.10;99.90;;;;;;4952600;29;20186;-68
2022/03/26 04:06:03;;;;;;;41.47;25.97;;;2.10;99.90;;;;;;4951810;29;20208;-68
2022/03/26 04:08:29;;;;;;;38.77;24.30;;;2.10;99.90;;;;;;4952435;28;20178;-68
2022/03/26 04:10:55;;;;;;;41.53;27.13;;;2.10;99.90;;;;;;4951528;29;20201;-69
2022/03/26 04:13:21;;;;;;;37.07;26.70;;;2.10;99.90;;;;;;4952809;29;20212;-69
2022/03/26 04:15:47;;;;;;;42.50;26.40;;;2.10;99.90;;;;;;4998231;23;20232;-77
2022/03/26 04:18:12;;;;;;;39.07;26.93;;;2.00;99.90;;;;;;4971517;28;20212;-77
2022/03/26 04:20:40;;;;;;;38.83;32.43;;;2.00;99.90;;;;;;4974856;28;20208;-77
2022/03/26 04:23:06;;;;;;;40.27;35.40;;;2.00;99.90;;;;;;4975949;28;20227;-77
2022/03/26 04:25:32;;;;;;;43.70;39.07;;;2.00;99.90;;;;;;4974730;28;20421;-77
2022/03/26 04:27:58;;;;;;;38.33;32.37;;;1.80;99.90;;;;;;4990574;28;20181;-77
2022/03/26 04:30:24;;;;;;;42.13;30.07;;;1.80;99.90;;;;;;4975637;28;20710;-77
2022/03/26 04:32:50;;;;;;;40.20;26.77;;;1.80;99.90;;;;;;4974387;28;20240;-77
2022/03/26 04:35:17;;;;;;;44.30;24.53;;;1.70;99.90;;;;;;4975495;28;20205;-77
2022/03/26 04:37:43;;;;;;;40.20;24.53;;;1.80;99.90;;;;;;4974957;28;20189;-77
2022/03/26 04:40:11;;;;;;;35.97;23.10;;;1.80;99.90;;;;;;4974169;28;20272;-77
2022/03/26 04:42:41;;;;;;;41.07;25.57;;;1.80;99.90;;;;;;4990475;28;20196;-77
2022/03/26 04:45:07;;;;;;;37.40;24.93;;;1.80;99.90;;;;;;4975260;28;20249;-77
2022/03/26 04:47:34;;;;;;;41.10;24.87;;;1.80;99.90;;;;;;4974908;28;20196;-77
2022/03/26 04:49:59;;;;;;;36.47;25.00;;;1.80;99.90;;;;;;4975186;28;20173;-77
2022/03/26 04:52:25;;;;;;;39.03;24.07;;;1.80;99.90;;;;;;4975236;28;20204;-77
2022/03/26 04:54:51;;;;;;;38.03;26.53;;;1.80;99.90;;;;;;4961654;28;20673;-77
2022/03/26 04:57:18;;;;;;;40.37;25.23;;;1.80;99.90;;;;;;4955538;28;20683;-76
2022/03/26 04:59:44;;;;;;;39.20;25.30;;;1.80;99.90;;;;;;4955757;28;20189;-77
2022/03/26 05:02:10;;;;;;;38.13;26.10;;;1.70;99.90;;;;;;4955536;28;20224;-77
2022/03/26 05:04:36;;;;;;;46.17;28.00;;;1.70;99.90;;;;;;4954699;28;20604;-77
2022/03/26 05:07:45;;;;;;;35.83;25.93;;;1.60;99.90;;;;;;4968857;28;20894;-76
2022/03/26 05:09:47;;;;;;;40.57;26.83;;;1.70;99.90;;;;;;4975069;28;20177;-77
2022/03/26 05:12:13;;;;;;;40.67;25.90;;;1.70;99.90;;;;;;4976319;28;20192;-76
2022/03/26 05:14:39;;;;;;;39.30;26.03;;;1.70;99.90;;;;;;4973667;28;20196;-77
2022/03/26 05:17:05;;;;;;;37.07;24.10;;;1.80;99.90;;;;;;4957459;28;20189;-77
2022/03/26 05:19:31;;;;;;;40.47;25.67;;;1.80;99.90;;;;;;4981556;28;20576;-77
2022/03/26 05:21:56;;;;;;;36.23;24.43;;;1.80;99.90;;;;;;4996347;28;20212;-76
2022/03/26 05:24:22;;;;;;;37.97;26.97;;;1.80;99.90;;;;;;4977969;28;20401;-76
2022/03/26 05:26:48;;;;;;;35.50;26.67;;;1.70;99.90;;;;;;4955125;28;20201;-76
2022/03/26 05:29:14;;;;;;;37.00;26.83;;;1.80;99.90;;;;;;4955235;28;20178;-77
2022/03/26 05:31:39;;;;;;;45.33;28.30;;;1.70;99.90;;;;;;4953134;28;20244;-77
2022/03/26 05:34:05;;;;;;;36.93;25.77;;;1.80;99.90;;;;;;4955161;28;20201;-77
2022/03/26 05:36:31;;;;;;;36.80;26.50;;;1.80;99.90;;;;;;4954248;28;20205;-76
2022/03/26 05:38:57;;;;;;;42.87;26.50;;;2.00;99.90;;;;;;4953718;28;20229;-77
2022/03/26 05:41:23;;;;;;;39.17;27.30;;;2.10;99.90;;;;;;4955341;28;20271;-77
2022/03/26 05:43:50;;;;;;;42.50;28.87;;;2.20;99.90;;;;;;4955449;28;20263;-78
2022/03/26 05:46:16;;;;;;;45.17;29.97;;;2.30;99.90;;;;;;4954343;28;20201;-78
2022/03/26 05:48:42;;;;;;;37.43;23.87;;;2.50;99.90;;;;;;4955658;28;20193;-77
2022/03/26 05:51:08;;;;;;;40.80;31.97;;;2.60;99.90;;;;;;4956692;28;20654;-78
2022/03/26 05:53:33;;;;;;;39.07;34.63;;;2.80;99.90;;;;;;4963121;28;20178;-77
2022/03/26 05:55:59;;;;;;;37.77;22.93;;;2.80;99.90;;;;;;4964045;29;20205;-77
2022/03/26 05:58:25;;;;;;;44.17;26.00;;;2.90;99.90;;;;;;4956356;28;20532;-77
2022/03/26 06:00:50;;;;;;;45.43;32.17;;;3.10;99.90;;;;;;4955116;28;20210;-77
2022/03/26 06:03:19;;;;;;;31.27;23.40;;;3.20;99.90;;;;;;4958977;28;20181;-78
2022/03/26 06:05:46;;;;;;;39.97;33.27;;;3.30;99.90;;;;;;4970384;28;20197;-77
2022/03/26 06:08:12;;;;;;;38.30;23.43;;;3.40;99.90;;;;;;4973474;28;20196;-77
2022/03/26 06:10:38;;;;;;;42.13;23.97;;;3.40;99.90;;;;;;4973806;28;20188;-77
2022/03/26 06:13:04;;;;;;;34.20;23.93;;;3.40;99.90;;;;;;4973766;28;20189;-78
2022/03/26 06:15:31;;;;;;;37.70;25.53;;;3.50;99.90;;;;;;4972746;28;20262;-78
2022/03/26 06:17:57;;;;;;;43.00;25.67;;;3.60;99.90;;;;;;4971859;28;20672;-78
2022/03/26 06:20:23;;;;;;;34.97;24.00;;;3.70;99.90;;;;;;4973623;28;20217;-78
2022/03/26 06:22:48;;;;;;;37.07;23.00;;;3.80;99.90;;;;;;4973714;28;20185;-77
2022/03/26 06:25:15;;;;;;;36.00;26.30;;;3.90;99.90;;;;;;4973937;28;20549;-77
2022/03/26 06:27:41;;;;;;;37.40;24.40;;;4.00;99.90;;;;;;4975311;28;20199;-77
2022/03/26 06:30:07;;;;;;;43.93;26.07;;;4.10;99.90;;;;;;4973556;28;20181;-77
2022/03/26 06:32:33;;;;;;;36.63;24.80;;;4.20;99.90;;;;;;4972362;28;20320;-78
2022/03/26 06:34:59;;;;;;;33.10;22.77;;;4.30;99.90;;;;;;4964912;28;20740;-78
2022/03/26 06:37:24;;;;;;;37.80;30.73;;;4.50;99.90;;;;;;4953613;28;20579;-77
2022/03/26 06:39:50;;;;;;;36.67;30.50;;;4.60;99.90;;;;;;4953015;29;20188;-78
2022/03/26 06:42:16;;;;;;;39.67;29.57;;;4.70;99.90;;;;;;4953864;28;20210;-78
2022/03/26 06:44:42;;;;;;;38.63;25.93;;;5.00;99.90;;;;;;4952535;29;20205;-78
2022/03/26 06:47:08;;;;;;;39.33;32.70;;;5.60;99.90;;;;;;4952899;29;20210;-77
2022/03/26 06:49:34;;;;;;;41.63;27.33;;;6.30;99.90;;;;;;4969934;28;20211;-78
2022/03/26 06:52:00;;;;;;;38.53;25.70;;;6.90;99.90;;;;;;4988868;28;20249;-78
2022/03/26 06:54:26;;;;;;;43.97;26.90;;;7.30;99.90;;;;;;4972962;28;20676;-78
2022/03/26 06:56:52;;;;;;;36.43;25.80;;;7.60;99.90;;;;;;4972744;28;20805;-78
2022/03/26 06:59:17;;;;;;;41.83;34.93;;;8.00;99.90;;;;;;4972936;28;20191;-79
2022/03/26 07:01:45;;;;;;;41.63;29.17;;;8.60;99.90;;;;;;4970739;28;20292;-78
2022/03/26 07:04:10;;;;;;;31.87;23.07;;;9.00;99.90;;;;;;4972643;28;20181;-78
2022/03/26 07:06:36;;;;;;;36.37;24.73;;;9.50;99.90;;;;;;4972767;28;20212;-78
2022/03/26 07:09:02;;;;;;;33.47;23.90;;;9.70;99.90;;;;;;4970947;28;20179;-77
2022/03/26 07:11:28;;;;;;;40.83;23.67;;;10.00;99.90;;;;;;4980344;28;20581;-77
2022/03/26 07:13:54;;;;;;;33.93;24.57;;;10.30;99.90;;;;;;4972486;28;20191;-77
2022/03/26 07:16:19;;;;;;;39.07;26.17;;;10.60;99.90;;;;;;4986897;28;20213;-77
2022/03/26 07:18:45;;;;;;;36.77;26.30;;;10.70;99.90;;;;;;4972056;28;20593;-77
2022/03/26 07:21:11;;;;;;;40.83;27.63;;;10.70;99.90;;;;;;4972531;28;20221;-77
2022/03/26 07:23:36;;;;;;;33.90;25.40;;;10.80;99.90;;;;;;4972378;28;20185;-78
2022/03/26 07:26:03;;;;;;;33.97;24.63;;;11.30;99.90;;;;;;4970665;28;20228;-75
2022/03/26 07:28:29;;;;;;;35.70;25.40;;;11.70;99.10;;;;;;4970894;28;20711;-77
2022/03/26 07:30:55;;;;;;;36.37;25.90;;;12.00;97.80;;;;;;4972232;28;20239;-77
2022/03/26 07:33:21;;;;;;;42.53;24.83;;;12.30;96.90;;;;;;4972048;28;20181;-78
2022/03/26 07:35:46;;;;;;;33.50;24.30;;;12.50;95.50;;;;;;4963917;28;20284;-77
2022/03/26 07:38:13;;;;;;;32.90;22.60;;;12.70;94.40;;;;;;4972296;28;20195;-76
2022/03/26 07:40:39;;;;;;;30.70;22.37;;;13.00;92.90;;;;;;4990467;28;20332;-76
2022/03/26 07:43:05;;;;;;;34.40;24.43;;;13.30;92.40;;;;;;4964910;28;20195;-76
2022/03/26 07:45:30;;;;;;;32.37;23.27;;;13.10;91.50;;;;;;4953131;28;20576;-77
2022/03/26 07:47:56;;;;;;;31.50;22.40;;;13.10;90.90;;;;;;4951217;29;20180;-77
2022/03/26 07:50:22;;;;;;;31.63;22.20;;;13.20;90.60;;;;;;4952849;28;20196;-77
2022/03/26 07:52:48;;;;;;;35.83;23.13;;;13.50;90.50;;;;;;4952742;28;20232;-77
2022/03/26 07:55:14;;;;;;;34.70;24.90;;;13.60;88.20;;;;;;4952163;28;20301;-78
2022/03/26 07:57:40;;;;;;;31.90;22.73;;;13.60;89.00;;;;;;4951348;28;20186;-77
2022/03/26 08:00:06;;;;;;;36.80;24.00;;;13.80;86.30;;;;;;4955950;28;20186;-78
2022/03/26 08:02:32;;;;;;;33.50;23.50;;;14.20;84.40;;;;;;4953602;28;20178;-77
2022/03/26 08:04:59;;;;;;;37.67;22.37;;;14.30;82.30;;;;;;4952737;28;20581;-77
2022/03/26 08:07:25;;;;;;;32.83;24.53;;;14.50;82.60;;;;;;4952172;28;20184;-77
2022/03/26 08:09:51;;;;;;;31.07;21.97;;;14.60;81.50;;;;;;4956281;28;20592;-77
2022/03/26 08:12:17;;;;;;;35.20;22.90;;;14.90;81.30;;;;;;4952505;28;20185;-77
2022/03/26 08:14:43;;;;;;;30.67;22.10;;;15.00;80.40;;;;;;4951285;28;20229;-77
2022/03/26 08:17:09;;;;;;;28.40;21.10;;;15.40;78.30;;;;;;4950855;28;20724;-77
2022/03/26 08:19:36;;;;;;;36.33;22.13;;;15.60;75.80;;;;;;4951306;28;20204;-77
2022/03/26 08:22:03;;;;;;;32.67;22.80;;;15.30;75.60;;;;;;4952420;28;20220;-76
2022/03/26 08:24:29;;;;;;;37.27;24.47;;;15.40;74.50;;;;;;4983794;28;20173;-78
2022/03/26 08:26:55;;;;;;;36.03;25.37;;;15.70;72.80;;;;;;4971414;28;20185;-77
2022/03/26 08:29:21;;;;;;;31.70;24.50;;;16.20;72.20;;;;;;4971814;28;20630;-77
2022/03/26 08:31:47;;;;;;;39.13;25.13;;;16.30;69.30;;;;;;4986229;28;20185;-77
2022/03/26 08:34:12;;;;;;;36.37;25.20;;;16.30;69.70;;;;;;4971451;28;20189;-77
2022/03/26 08:36:38;;;;;;;34.17;24.20;;;16.40;68.50;;;;;;4970970;28;20577;-77
2022/03/26 08:39:05;;;;;;;49.07;24.83;;;16.70;67.80;;;;;;4969943;28;20838;-77
2022/03/26 08:41:31;;;;;;;39.73;25.37;;;17.00;65.30;;;;;;4969141;28;20327;-77
2022/03/26 08:43:56;;;;;;;35.03;23.67;;;17.30;64.90;;;;;;4970851;28;20189;-76
2022/03/26 08:46:23;;;;;;;38.07;25.00;;;17.40;64.00;;;;;;4970006;28;20237;-77
2022/03/26 08:48:50;;;;;;;36.90;25.43;;;17.80;63.70;;;;;;4971135;28;20598;-77
2022/03/26 08:51:16;;;;;;;38.47;24.60;;;17.90;63.80;;;;;;4971810;28;20579;-77
2022/03/26 08:53:43;;;;;;;33.22;24.30;;;18.00;62.70;;;;;;4971899;28;20185;-76
2022/03/26 08:56:09;;;;;;;34.80;24.03;;;18.20;62.10;;;;;;4972433;28;20637;-77
2022/03/26 08:58:36;;;;;;;35.90;23.83;;;18.00;60.60;;;;;;4971418;28;20189;-77
2022/03/26 09:01:03;;;;;;;32.93;23.50;;;18.20;61.20;;;;;;4971541;28;20264;-77
2022/03/26 09:03:29;;;;;;;37.10;24.20;;;18.00;60.80;;;;;;4966972;28;20200;-77
2022/03/26 09:05:55;;;;;;;37.40;23.27;;;18.00;60.20;;;;;;4954925;28;20666;-76
2022/03/26 09:08:22;;;;;;;33.58;22.95;;;18.30;60.60;;;;;;4955529;28;20625;-75
2022/03/26 09:10:48;;;;;;;36.50;22.35;;;18.70;58.40;;;;;;4938490;29;20281;-76
2022/03/26 09:13:15;;;;;;;32.60;22.60;;;18.90;56.60;;;;;;4954439;29;20218;-76
2022/03/26 09:15:45;;;;;;;37.65;24.13;;;19.20;56.60;;;;;;4956121;28;20228;-76
2022/03/26 09:18:11;;;;;;;36.33;22.85;;;19.40;55.40;;;;;;4968335;28;20187;-76
2022/03/26 09:20:38;;;;;;;33.00;24.13;;;19.40;53.60;;;;;;4974741;28;20213;-69
2022/03/26 09:23:07;;;;;;;40.05;24.25;;;19.50;55.40;;;;;;4975103;28;20185;-68
2022/03/26 09:25:34;;;;;;;34.15;22.92;;;19.80;54.90;;;;;;4975676;28;20209;-68
2022/03/26 09:28:00;;;;;;;33.72;23.85;;;20.20;52.60;;;;;;4974775;28;20185;-68
2022/03/26 09:30:26;;;;;;;35.63;23.25;;;20.40;52.10;;;;;;4969527;28;20634;-69
2022/03/26 09:32:52;;;;;;;35.45;23.33;;;20.50;52.70;;;;;;4954698;28;20186;-69
2022/03/26 09:35:18;;;;;;;34.03;23.40;;;20.80;50.00;;;;;;4955070;28;20209;-69
2022/03/26 09:37:44;;;;;;;38.88;22.98;;;20.70;51.10;;;;;;4961180;28;20185;-69
2022/03/26 09:40:11;;;;;;;37.70;24.23;;;20.80;49.60;;;;;;4973978;28;20185;-68
2022/03/26 09:42:39;;;;;;;35.22;22.23;;;20.60;49.10;;;;;;4973892;28;20184;-69
2022/03/26 09:45:06;;;;;;;37.60;22.92;;;20.60;49.80;;;;;;4961162;28;20329;-70
2022/03/26 09:47:36;;;;;;;34.50;23.98;;;20.30;49.90;;;;;;4952332;29;20181;-69
2022/03/26 09:50:07;;;;;;;35.40;23.02;;;20.70;50.00;;;;;;4955555;28;20180;-69
2022/03/26 09:52:34;;;;;;;35.35;22.77;;;21.20;48.20;;;;;;4954561;28;20662;-69
2022/03/26 09:55:01;;;;;;;37.80;24.15;;;21.30;48.50;;;;;;4953743;28;20245;-68
2022/03/26 09:57:27;;;;;;;39.80;23.95;;;21.70;46.80;;;;;;4957105;28;20671;-68
2022/03/26 09:59:52;;;;;;;36.03;24.30;;;21.90;45.00;;;;;;4974203;28;20390;-67
2022/03/26 10:02:18;;;;;;;34.80;25.55;;;22.00;44.50;;;;;;4966495;28;20830;-74
2022/03/26 10:04:45;;;;;;;36.22;25.08;;;22.20;44.30;;;;;;4952608;28;20233;-74
2022/03/26 10:07:11;;;;;;;36.40;23.55;;;22.30;46.00;;;;;;4952812;28;20602;-76
2022/03/26 10:09:42;;;;;;;33.35;22.83;;;22.70;41.00;;;;;;4972542;28;20185;-75
2022/03/26 10:12:19;;;;;;;29.77;21.40;;;22.60;40.00;;;;;;4972675;28;20271;-75
2022/03/26 10:17:25;;;;;;;34.97;20.95;;;22.00;41.00;;;;;;4970799;23;20244;-70
2022/03/26 10:19:53;;;;;;;34.17;22.33;;;21.80;39.50;;;;;;4954642;28;20181;-70
2022/03/26 10:22:29;;;;;;;32.15;21.25;;;21.90;40.80;;;;;;4954400;28;20209;-72
2022/03/26 10:24:58;;;;;;;33.78;22.75;;;22.40;39.80;;;;;;4954595;28;20189;-70
2022/03/26 10:27:24;;;;;;;34.75;22.05;;;22.10;37.60;;;;;;4954071;28;20217;-71
2022/03/26 10:29:55;;;;;;;35.95;22.88;;;22.00;38.40;;;;;;4953546;28;20201;-71
2022/03/26 10:32:45;;;;;;;32.08;21.05;;;21.70;38.40;;;;;;4953442;29;20185;-71
2022/03/26 10:35:19;;;;;;;29.52;20.90;;;21.70;38.90;;;;;;4953069;28;20201;-71
2022/03/26 10:37:55;;;;;;;33.33;21.83;;;22.10;39.10;;;;;;4956510;28;20216;-71
2022/03/26 10:40:37;;;;;;;38.30;23.83;;;22.30;38.20;;;;;;4954589;28;20185;-71
2022/03/26 10:43:12;;;;;;;34.22;22.48;;;22.50;37.90;;;;;;4953256;29;20182;-71
2022/03/26 10:45:49;;;;;;;33.90;22.70;;;22.90;38.20;;;;;;4954291;28;20221;-71
2022/03/26 10:48:22;;;;;;;30.65;21.63;;;23.30;36.60;;;;;;4952498;29;20276;-71
2022/03/26 10:50:53;;;;;;;33.13;21.30;;;23.20;37.40;;;;;;4953113;29;20185;-71
2022/03/26 10:53:19;;;;;;;30.75;20.75;;;23.40;36.70;;;;;;4952992;29;20236;-71
2022/03/26 10:55:45;;;;;;;29.75;18.63;;;23.10;36.20;;;;;;4953890;28;20201;-71
2022/03/26 10:58:12;;;;;;;27.63;18.52;;;22.90;36.10;;;;;;4952487;29;20193;-71
2022/03/26 11:00:38;;;;;;;28.45;20.08;;;22.50;36.50;;;;;;4953956;28;20213;-71
2022/03/26 11:03:04;;;;;;;33.70;21.80;;;22.30;36.50;;;;;;4952356;29;20670;-71
2022/03/26 11:05:31;;;;;;;32.70;19.30;;;22.50;36.80;;;;;;4953874;28;20572;-71
2022/03/26 11:07:58;;;;;;;31.05;19.35;;;23.00;36.40;;;;;;4952294;29;20208;-71
2022/03/26 11:10:25;;;;;;;27.33;19.73;;;23.10;36.30;;;;;;4954068;28;20240;-71
2022/03/26 11:12:52;;;;;;;28.98;18.83;;;23.00;35.90;;;;;;4953874;28;20273;-71
2022/03/26 11:15:26;;;;;;;31.58;19.92;;;22.90;35.00;;;;;;4953397;28;20216;-71
2022/03/26 11:18:08;;;;;;;29.35;16.92;;;22.90;36.90;;;;;;4953280;28;20181;-71
2022/03/26 11:21:06;;;;;;;29.67;19.42;;;23.50;35.90;;;;;;4953389;28;20209;-71
2022/03/26 11:23:44;;;;;;;24.83;17.42;;;23.20;34.20;;;;;;4960008;28;20569;-71
2022/03/26 11:26:35;;;;;;;25.35;18.65;;;23.50;34.80;;;;;;4952417;28;20208;-71
2022/03/26 11:29:32;;;;;;;23.48;18.40;;;23.40;34.10;;;;;;4952145;29;20752;-71
2022/03/26 11:32:17;;;;;;;24.80;17.98;;;23.40;34.50;;;;;;4953534;28;20185;-71
2022/03/26 11:34:43;;;;;;;23.60;17.95;;;24.30;34.00;;;;;;4954031;28;20232;-71
2022/03/26 11:37:12;;;;;;;26.27;19.08;;;24.60;32.50;;;;;;4951847;29;20253;-70
2022/03/26 11:39:46;;;;;;;23.83;18.60;;;24.70;32.00;;;;;;4953461;28;20240;-71
2022/03/26 11:42:13;;;;;;;25.73;20.05;;;24.70;31.70;;;;;;4953057;28;20201;-71
2022/03/26 11:50:40;;;;;;;27.80;20.30;;;24.10;32.30;;;;;;4953264;28;20181;-71
2022/03/26 11:53:08;;;;;;;22.67;16.05;;;23.70;31.10;;;;;;4953449;28;20200;-71
2022/03/26 11:55:47;;;;;;;21.83;16.13;;;23.70;31.30;;;;;;4950549;28;20225;-70
2022/03/26 11:58:20;;;;;;;21.52;16.20;;;24.30;30.70;;;;;;4952326;29;20181;-71
2022/03/26 12:01:03;;;;;;;21.10;14.32;;;24.60;30.00;;;;;;4953315;28;20209;-71
2022/03/26 12:03:31;;;;;;;23.52;15.95;;;25.30;29.70;;;;;;4953038;28;20177;-71
2022/03/26 12:08:56;;;;;;;21.33;15.07;;;25.00;29.90;;;;;;4947118;29;20182;-70
2022/03/26 12:11:26;;;;;;;20.95;15.75;;;25.10;28.80;;;;;;4947420;29;20562;-71
2022/03/26 12:14:03;;;;;;;22.90;15.98;;;25.60;29.10;;;;;;4945362;29;20188;-71
2022/03/26 12:16:51;;;;;;;20.77;14.13;;;25.90;29.20;;;;;;4951354;28;20228;-71
2022/03/26 12:19:36;;;;;;;17.88;14.43;;;26.00;28.40;;;;;;4952314;29;20193;-71
2022/03/26 12:22:28;;;;;;;20.48;15.10;;;25.40;28.00;;;;;;4950941;29;20300;-70
2022/03/26 12:24:57;;;;;;;20.73;14.57;;;24.70;28.70;;;;;;4952351;28;20646;-70
2022/03/26 12:27:24;;;;;;;14.38;11.30;;;25.10;28.70;;;;;;4951825;28;20188;-71
2022/03/26 12:29:55;;;;;;;21.95;15.32;;;25.30;27.80;;;;;;4952881;28;20201;-71
2022/03/26 12:32:21;;;;;;;18.92;14.73;;;25.40;28.10;;;;;;4951681;28;20190;-71
2022/03/26 12:35:01;;;;;;;16.63;13.15;;;26.20;27.10;;;;;;4952975;28;20190;-71
2022/03/26 12:37:28;;;;;;;21.65;14.27;;;26.40;26.50;;;;;;4952328;28;20196;-71
2022/03/26 12:39:54;;;;;;;23.13;15.73;;;26.40;27.10;;;;;;4953241;28;20217;-71
2022/03/26 12:42:21;;;;;;;23.33;15.07;;;26.20;27.60;;;;;;4954964;28;20218;-73
2022/03/26 12:44:47;;;;;;;24.13;15.68;;;25.50;27.20;;;;;;4956967;29;20182;-71
2022/03/26 12:47:20;;;;;;;23.25;15.32;;;25.10;28.30;;;;;;4956208;28;20220;-71
2022/03/26 12:49:50;;;;;;;23.40;16.90;;;25.30;28.10;;;;;;4956150;29;20328;-71
2022/03/26 12:52:18;;;;;;;20.75;16.00;;;25.70;28.40;;;;;;4955014;28;20193;-71
2022/03/26 12:54:45;;;;;;;26.83;16.83;;;26.60;28.20;;;;;;4949091;28;20191;-71
2022/03/26 12:57:10;;;;;;;22.27;16.35;;;27.70;28.10;;;;;;4935291;29;20281;-71
2022/03/26 12:59:36;;;;;;;22.42;16.50;;;27.90;27.30;;;;;;4936309;29;20635;-71
2022/03/26 13:02:02;;;;;;;18.55;14.77;;;28.00;27.60;;;;;;4936832;29;20218;-70
2022/03/26 13:04:28;;;;;;;21.02;15.77;;;28.60;26.40;;;;;;4935973;29;20232;-70
2022/03/26 13:06:57;;;;;;;24.50;15.40;;;28.60;25.60;;;;;;4939146;28;20556;-70
2022/03/26 13:09:33;;;;;;;24.23;20.05;;;27.90;25.60;;;;;;4937082;29;20179;-71
2022/03/26 13:11:59;;;;;;;21.73;16.45;;;27.60;27.00;;;;;;4936491;29;20190;-71
2022/03/26 13:14:25;;;;;;;24.95;15.82;;;28.50;26.20;;;;;;4936718;29;20186;-71
2022/03/26 13:16:52;;;;;;;23.33;15.45;;;28.10;26.10;;;;;;4934669;29;20304;-71
2022/03/26 13:19:18;;;;;;;22.60;14.98;;;27.60;26.30;;;;;;4940620;29;20194;-71
2022/03/26 13:21:53;;;;;;;17.85;14.25;;;27.10;25.70;;;;;;4955375;28;20217;-71
2022/03/26 13:24:21;;;;;;;21.50;14.15;;;27.20;26.00;;;;;;4955854;28;20189;-72
2022/03/26 13:27:05;;;;;;;21.88;16.40;;;27.50;26.20;;;;;;4954755;28;20276;-70
2022/03/26 13:29:36;;;;;;;17.33;15.38;;;27.60;25.50;;;;;;4955598;28;20186;-72
2022/03/26 13:32:09;;;;;;;25.15;15.00;;;28.60;26.00;;;;;;4954453;29;20244;-71
2022/03/26 13:34:39;;;;;;;21.10;14.88;;;28.60;25.10;;;;;;4955101;28;20192;-69
2022/03/26 13:37:10;;;;;;;20.40;13.88;;;26.70;25.80;;;;;;4955005;28;20396;-71
2022/03/26 13:39:40;;;;;;;17.85;15.05;;;26.50;26.20;;;;;;4954049;29;20197;-70
2022/03/26 13:42:14;;;;;;;22.15;14.93;;;26.80;25.90;;;;;;4954795;28;20300;-70
2022/03/26 13:44:42;;;;;;;19.38;14.20;;;28.30;25.00;;;;;;4955324;28;20177;-72
2022/03/26 13:47:19;;;;;;;17.88;13.23;;;28.50;24.80;;;;;;4954298;28;20713;-70
2022/03/26 13:50:00;;;;;;;20.13;14.40;;;28.50;23.80;;;;;;4953600;28;20177;-71
2022/03/26 13:52:32;;;;;;;15.57;12.80;;;27.70;23.90;;;;;;4953320;28;20208;-70
2022/03/26 13:54:58;;;;;;;19.00;12.75;;;27.70;23.90;;;;;;4938434;28;20193;-71
2022/03/26 13:57:33;;;;;;;24.23;16.30;;;27.10;24.20;;;;;;4953446;28;20730;-73
2022/03/26 14:00:09;;;;;;;17.50;12.10;;;26.50;24.80;;;;;;4953073;28;20193;-71
2022/03/26 14:02:38;;;;;;;17.77;14.15;;;26.30;24.80;;;;;;4953717;28;20219;-72
2022/03/26 14:05:16;;;;;;;20.25;13.90;;;26.00;24.80;;;;;;4954816;28;20236;-70
2022/03/26 14:07:42;;;;;;;18.00;14.23;;;26.40;24.90;;;;;;4954816;28;20188;-70
2022/03/26 14:10:08;;;;;;;23.00;12.50;;;27.00;24.80;;;;;;4954963;29;20552;-70
2022/03/26 14:12:34;;;;;;;15.52;12.23;;;28.10;24.00;;;;;;4954757;28;20268;-70
2022/03/26 14:15:00;;;;;;;18.17;12.48;;;27.70;23.70;;;;;;4954410;28;20779;-70
2022/03/26 14:17:25;;;;;;;15.88;12.68;;;27.70;23.80;;;;;;4954478;28;20677;-71
2022/03/26 14:19:51;;;;;;;16.67;12.25;;;28.20;23.90;;;;;;4955037;28;20189;-71
2022/03/26 14:22:17;;;;;;;22.10;12.30;;;28.30;23.60;;;;;;4954751;29;20296;-71
2022/03/26 14:24:43;;;;;;;17.10;13.10;;;27.60;24.70;;;;;;4954675;28;20188;-74
2022/03/26 14:27:08;;;;;;;14.95;12.25;;;27.70;25.50;;;;;;4953908;29;20212;-71
2022/03/26 14:29:34;;;;;;;16.17;12.10;;;27.60;25.10;;;;;;4940148;28;20277;-71
2022/03/26 14:32:00;;;;;;;16.27;12.85;;;27.30;24.70;;;;;;4954259;29;20190;-71
2022/03/26 14:34:26;;;;;;;18.45;11.30;;;26.80;24.50;;;;;;4954001;28;20190;-71
2022/03/26 14:36:54;;;;;;;17.98;12.43;;;26.70;24.80;;;;;;4954078;28;20247;-70
2022/03/26 14:39:19;;;;;;;15.43;11.70;;;26.80;23.90;;;;;;4954686;28;20186;-71
2022/03/26 14:41:45;;;;;;;18.95;12.27;;;26.80;23.70;;;;;;4953604;28;20217;-71
2022/03/26 14:44:11;;;;;;;15.68;12.30;;;27.00;23.50;;;;;;4968985;28;20261;-71
2022/03/26 14:46:39;;;;;;;14.10;10.98;;;27.20;23.50;;;;;;4954069;28;20568;-72
2022/03/26 14:49:04;;;;;;;14.95;11.98;;;27.80;23.60;;;;;;4953584;28;20182;-71
2022/03/26 14:51:30;;;;;;;18.33;11.65;;;27.60;23.70;;;;;;4953874;29;20182;-72
2022/03/26 14:53:57;;;;;;;16.48;11.63;;;28.20;23.80;;;;;;4953650;28;20187;-74
2022/03/26 14:56:23;;;;;;;15.45;11.57;;;28.40;23.90;;;;;;4954032;28;20218;-74
2022/03/26 14:58:49;;;;;;;13.80;11.15;;;28.10;24.30;;;;;;4952864;29;20268;-73
2022/03/26 15:01:14;;;;;;;16.98;12.07;;;27.20;24.70;;;;;;4954081;28;20209;-76
2022/03/26 15:03:40;;;;;;;18.60;12.48;;;26.30;25.80;;;;;;4953666;28;20186;-74
2022/03/26 15:06:06;;;;;;;18.08;13.65;;;25.20;27.30;;;;;;4952468;28;20236;-71
2022/03/26 15:08:32;;;;;;;15.25;13.23;;;25.00;28.30;;;;;;4952718;28;20210;-69
2022/03/26 15:10:59;;;;;;;16.17;13.13;;;25.50;27.10;;;;;;4968632;28;20655;-70
2022/03/26 15:13:25;;;;;;;20.90;12.88;;;25.20;27.20;;;;;;4968208;28;20217;-71
2022/03/26 15:15:52;;;;;;;19.10;13.15;;;25.10;27.70;;;;;;4953882;28;20265;-70
2022/03/26 15:18:18;;;;;;;22.33;12.50;;;24.40;28.70;;;;;;4933597;29;20190;-71
2022/03/26 15:20:44;;;;;;;16.83;11.82;;;23.80;28.60;;;;;;4944304;29;20214;-72
2022/03/26 15:23:10;;;;;;;17.50;13.60;;;23.50;29.40;;;;;;4949713;28;20273;-71
2022/03/26 15:25:36;;;;;;;17.02;12.38;;;23.40;28.90;;;;;;4943565;29;20296;-72
2022/03/26 15:28:02;;;;;;;19.20;13.20;;;23.70;29.20;;;;;;4952664;28;20593;-71
2022/03/26 15:30:28;;;;;;;16.23;12.35;;;23.60;29.50;;;;;;4952894;28;20331;-70
2022/03/26 15:32:54;;;;;;;24.83;12.88;;;23.90;28.70;;;;;;4965166;28;20232;-71
2022/03/26 15:35:20;;;;;;;16.10;12.90;;;24.30;28.30;;;;;;4962646;28;20197;-71
2022/03/26 15:37:45;;;;;;;18.67;14.13;;;25.30;28.30;;;;;;4953657;28;20522;-71
2022/03/26 15:40:12;;;;;;;19.52;13.55;;;26.20;27.90;;;;;;4956716;29;20570;-72
2022/03/26 15:42:38;;;;;;;20.13;14.70;;;26.60;27.10;;;;;;4956209;28;20206;-72
2022/03/26 15:45:05;;;;;;;16.83;12.75;;;26.40;26.90;;;;;;4952518;28;20186;-72
2022/03/26 15:47:31;;;;;;;18.25;13.55;;;26.60;26.60;;;;;;4953123;28;20189;-71
2022/03/26 15:49:57;;;;;;;15.65;12.93;;;26.40;26.90;;;;;;4951556;29;20178;-71
2022/03/26 15:52:23;;;;;;;19.90;13.75;;;25.60;27.00;;;;;;4953472;28;20669;-71
2022/03/26 15:54:49;;;;;;;21.98;15.27;;;25.50;27.60;;;;;;4969006;28;20182;-71
2022/03/26 15:57:15;;;;;;;17.33;13.10;;;25.70;27.30;;;;;;4952611;28;20212;-71
2022/03/26 15:59:40;;;;;;;14.82;12.88;;;26.30;27.30;;;;;;4951245;29;20661;-72
2022/03/26 16:02:07;;;;;;;17.05;12.45;;;26.50;26.60;;;;;;4944268;29;20217;-72
2022/03/26 16:04:32;;;;;;;26.38;15.07;;;26.30;26.20;;;;;;4933940;29;20186;-72
2022/03/26 16:06:58;;;;;;;19.05;13.57;;;25.80;27.30;;;;;;4933569;29;20208;-70
2022/03/26 16:09:24;;;;;;;17.58;13.15;;;26.30;27.10;;;;;;4934471;29;20265;-68
2022/03/26 16:11:50;;;;;;;15.38;12.05;;;26.00;27.20;;;;;;4935367;29;20186;-69
2022/03/26 16:14:18;;;;;;;20.40;12.75;;;25.30;27.60;;;;;;4933887;29;20195;-68
2022/03/26 16:16:44;;;;;;;17.08;12.70;;;24.60;28.00;;;;;;4951676;28;20270;-68
2022/03/26 16:19:10;;;;;;;29.50;18.65;;;24.00;28.80;;;;;;4956495;28;20181;-67
2022/03/26 16:21:36;;;;;;;21.13;12.55;;;23.60;29.20;;;;;;4956764;28;20760;-67
2022/03/26 16:24:03;;;;;;;16.35;12.32;;;23.30;29.40;;;;;;4956688;28;20182;-68
2022/03/26 16:26:32;;;;;;;18.35;12.57;;;23.20;29.50;;;;;;4956834;28;20201;-68
2022/03/26 16:28:58;;;;;;;19.30;12.82;;;22.90;29.60;;;;;;4950380;28;20182;-68
2022/03/26 16:31:23;;;;;;;21.17;12.95;;;22.70;30.20;;;;;;4937745;29;20189;-67
2022/03/26 16:33:49;;;;;;;21.27;14.05;;;22.50;29.50;;;;;;4936248;29;20268;-69
2022/03/26 16:36:15;;;;;;;14.63;11.35;;;22.40;29.70;;;;;;4937442;29;20303;-68
2022/03/26 16:38:41;;;;;;;15.98;11.57;;;23.00;29.30;;;;;;4936957;29;20275;-70
2022/03/26 16:41:06;;;;;;;18.40;12.57;;;23.00;29.20;;;;;;4937480;29;20206;-68
2022/03/26 16:43:32;;;;;;;15.68;12.30;;;23.00;29.10;;;;;;4951076;29;20189;-67
2022/03/26 16:45:58;;;;;;;19.70;13.02;;;23.30;29.20;;;;;;4956554;28;20193;-68